createdAt,value
2023-10-20T00:00:42.577Z,46.72
2023-10-20T00:03:10.406Z,46.30
2023-10-20T00:05:37.846Z,47.34
2023-10-20T00:08:05.198Z,47.01
2023-10-20T00:10:36.472Z,46.94
2023-10-20T00:13:04.000Z,46.93
2023-10-20T00:15:30.728Z,47.12
2023-10-20T00:17:57.555Z,46.44
2023-10-20T00:20:25.357Z,46.53
2023-10-20T00:22:52.016Z,46.42
2023-10-20T00:25:18.699Z,46.66
2023-10-20T00:27:46.563Z,46.45
2023-10-20T00:30:13.332Z,47.08
2023-10-20T00:32:43.081Z,46.56
2023-10-20T00:35:10.901Z,46.33
2023-10-20T00:37:37.900Z,46.06
2023-10-20T00:40:13.924Z,46.38
2023-10-20T00:42:40.849Z,46.99
2023-10-20T00:45:09.513Z,46.72
2023-10-20T00:47:37.523Z,46.19
2023-10-20T00:50:05.960Z,46.51
2023-10-20T00:52:32.851Z,46.28
2023-10-20T00:54:59.785Z,46.81
2023-10-20T00:57:27.969Z,46.94
2023-10-20T00:59:54.706Z,46.60
2023-10-20T01:02:21.770Z,46.49
2023-10-20T01:04:49.574Z,46.94
2023-10-20T01:07:16.424Z,46.66
2023-10-20T01:09:44.167Z,46.86
2023-10-20T01:12:11.201Z,46.35
2023-10-20T01:14:38.479Z,46.72
2023-10-20T01:17:05.421Z,46.15
2023-10-20T01:19:33.138Z,46.74
2023-10-20T01:22:01.165Z,45.80
2023-10-20T01:24:28.192Z,45.84
2023-10-20T01:26:54.914Z,46.66
2023-10-20T01:29:21.773Z,46.77
2023-10-20T01:31:48.494Z,46.04
2023-10-20T01:34:15.305Z,46.75
2023-10-20T01:36:42.749Z,46.69
2023-10-20T01:39:09.556Z,46.23
2023-10-20T01:41:36.284Z,46.51
2023-10-20T01:44:03.547Z,46.30
2023-10-20T01:46:30.442Z,46.45
2023-10-20T01:48:57.154Z,45.56
2023-10-20T01:51:23.971Z,45.80
2023-10-20T01:53:50.709Z,45.59
2023-10-20T01:56:17.449Z,45.74
2023-10-20T01:58:44.201Z,45.95
2023-10-20T02:01:10.998Z,46.21
2023-10-20T02:03:38.397Z,45.92
2023-10-20T02:06:06.180Z,46.12
2023-10-20T02:08:33.649Z,46.10
2023-10-20T02:11:01.356Z,46.10
2023-10-20T02:13:28.431Z,46.22
2023-10-20T02:15:55.165Z,46.21
2023-10-20T02:18:22.057Z,46.59
2023-10-20T02:21:04.794Z,46.06
2023-10-20T02:23:32.542Z,46.46
2023-10-20T02:26:00.845Z,46.18
2023-10-20T02:28:27.952Z,46.21
2023-10-20T02:30:56.414Z,46.74
2023-10-20T02:33:23.201Z,47.17
2023-10-20T02:35:50.025Z,46.25
2023-10-20T02:38:16.737Z,46.16
2023-10-20T02:40:53.185Z,46.98
2023-10-20T02:43:19.906Z,46.17
2023-10-20T02:45:56.440Z,46.41
2023-10-20T02:48:24.088Z,46.17
2023-10-20T02:50:51.364Z,45.98
2023-10-20T02:53:19.375Z,45.80
2023-10-20T02:55:47.213Z,46.32
2023-10-20T02:58:15.606Z,45.81
2023-10-20T03:00:45.904Z,46.77
2023-10-20T03:03:13.644Z,45.85
2023-10-20T03:05:43.371Z,46.73
2023-10-20T03:08:10.494Z,46.12
2023-10-20T03:10:37.746Z,46.13
2023-10-20T03:13:05.595Z,46.22
2023-10-20T03:15:33.091Z,45.57
2023-10-20T03:18:03.855Z,45.24
2023-10-20T03:20:31.498Z,45.99
2023-10-20T03:22:58.438Z,46.40
2023-10-20T03:25:25.352Z,46.46
2023-10-20T03:27:52.079Z,45.53
2023-10-20T03:30:19.426Z,45.56
2023-10-20T03:32:49.953Z,46.49
2023-10-20T03:35:17.529Z,46.39
2023-10-20T03:37:44.464Z,46.57
2023-10-20T03:40:14.827Z,46.46
2023-10-20T03:42:44.829Z,47.23
2023-10-20T03:45:12.049Z,46.41
2023-10-20T03:47:41.750Z,46.22
2023-10-20T03:50:17.763Z,46.39
2023-10-20T03:52:47.890Z,46.26
2023-10-20T03:55:14.958Z,46.05
2023-10-20T03:57:45.702Z,45.63
2023-10-20T04:00:19.323Z,46.69
2023-10-20T04:02:48.093Z,46.23
2023-10-20T04:05:16.612Z,46.37
2023-10-20T04:07:43.682Z,46.33
2023-10-20T04:10:11.091Z,45.55
2023-10-20T04:12:39.623Z,46.00
2023-10-20T04:15:10.045Z,46.00
2023-10-20T04:17:40.049Z,46.15
2023-10-20T04:20:08.426Z,45.71
2023-10-20T04:22:35.432Z,45.00
2023-10-20T04:25:02.505Z,45.65
2023-10-20T04:27:51.084Z,45.95
2023-10-20T04:30:37.255Z,45.81
2023-10-20T04:33:23.707Z,45.55
2023-10-20T04:36:09.091Z,45.73
2023-10-20T04:38:54.729Z,45.48
2023-10-20T04:41:40.010Z,45.21
2023-10-20T04:44:15.866Z,44.97
2023-10-20T04:46:59.062Z,45.21
2023-10-20T04:49:44.187Z,45.98
2023-10-20T04:52:29.456Z,45.91
2023-10-20T04:55:11.193Z,45.15
2023-10-20T04:57:56.724Z,45.02
2023-10-20T05:00:23.423Z,45.79
2023-10-20T05:02:59.809Z,45.25
2023-10-20T05:05:27.256Z,45.21
2023-10-20T05:07:54.863Z,44.81
2023-10-20T05:10:22.015Z,45.96
2023-10-20T05:12:48.811Z,45.08
2023-10-20T05:15:16.057Z,45.81
2023-10-20T05:17:42.901Z,44.92
2023-10-20T05:20:11.343Z,45.30
2023-10-20T05:22:38.248Z,46.14
2023-10-20T05:25:05.603Z,45.10
2023-10-20T05:27:32.253Z,45.19
2023-10-20T05:29:58.880Z,45.13
2023-10-20T05:32:25.825Z,45.71
2023-10-20T05:34:54.914Z,45.14
2023-10-20T05:37:23.021Z,45.32
2023-10-20T05:39:50.029Z,45.72
2023-10-20T05:42:17.931Z,46.04
2023-10-20T05:45:03.222Z,45.83
2023-10-20T05:47:33.073Z,45.21
2023-10-20T05:50:02.180Z,45.94
2023-10-20T05:52:29.029Z,45.37
2023-10-20T05:54:57.616Z,45.32
2023-10-20T05:57:24.293Z,44.77
2023-10-20T05:59:51.594Z,44.95
2023-10-20T06:02:18.261Z,44.79
2023-10-20T06:04:44.969Z,45.40
2023-10-20T06:07:12.223Z,45.37
2023-10-20T06:09:38.954Z,45.25
2023-10-20T06:12:08.268Z,45.49
2023-10-20T06:14:37.472Z,45.24
2023-10-20T06:17:04.495Z,46.21
2023-10-20T06:19:32.719Z,45.94
2023-10-20T06:22:01.677Z,45.30
2023-10-20T06:24:29.245Z,45.83
2023-10-20T06:27:03.983Z,46.44
2023-10-20T06:29:34.320Z,46.21
2023-10-20T06:32:19.672Z,45.99
2023-10-20T06:34:47.831Z,46.40
2023-10-20T06:37:23.586Z,46.99
2023-10-20T06:39:50.239Z,46.63
2023-10-20T06:42:17.946Z,46.32
2023-10-20T06:44:44.769Z,46.77
2023-10-20T06:47:12.998Z,46.24
2023-10-20T06:49:39.697Z,46.49
2023-10-20T06:52:07.093Z,46.22
2023-10-20T06:54:34.086Z,45.53
2023-10-20T06:57:01.029Z,46.05
2023-10-20T06:59:28.078Z,44.86
2023-10-20T07:02:01.407Z,45.54
2023-10-20T07:04:28.838Z,45.11
2023-10-20T07:06:57.955Z,44.84
2023-10-20T07:09:25.328Z,44.67
2023-10-20T07:11:53.553Z,45.60
2023-10-20T07:14:20.441Z,44.68
2023-10-20T07:16:47.322Z,45.12
2023-10-20T07:19:14.124Z,45.67
2023-10-20T07:21:41.476Z,45.57
2023-10-20T07:24:08.618Z,44.92
2023-10-20T07:26:36.185Z,45.63
2023-10-20T07:29:03.397Z,45.21
2023-10-20T07:31:30.157Z,45.31
2023-10-20T07:33:57.465Z,44.62
2023-10-20T07:36:24.202Z,45.92
2023-10-20T07:38:50.987Z,45.97
2023-10-20T07:41:18.564Z,46.19
2023-10-20T07:43:45.415Z,45.63
2023-10-20T07:46:18.430Z,45.27
2023-10-20T07:48:45.497Z,46.26
2023-10-20T07:51:12.783Z,45.75
2023-10-20T07:53:39.832Z,46.03
2023-10-20T07:56:06.918Z,45.46
2023-10-20T07:58:34.263Z,45.51
2023-10-20T08:01:02.026Z,45.59
2023-10-20T08:03:29.141Z,45.31
2023-10-20T08:05:56.598Z,45.29
2023-10-20T08:08:23.501Z,46.04
2023-10-20T08:10:50.866Z,45.74
2023-10-20T08:13:18.913Z,45.56
2023-10-20T08:15:45.830Z,44.97
2023-10-20T08:18:12.550Z,44.92
2023-10-20T08:20:39.962Z,44.64
2023-10-20T08:23:06.777Z,45.10
2023-10-20T08:25:37.199Z,44.47
2023-10-20T08:28:04.120Z,44.48
2023-10-20T08:30:30.870Z,44.53
2023-10-20T08:32:57.618Z,43.96
2023-10-20T08:35:24.491Z,43.83
2023-10-20T08:37:51.219Z,44.00
2023-10-20T08:40:18.015Z,43.97
2023-10-20T08:42:45.010Z,44.42
2023-10-20T08:45:15.950Z,44.73
2023-10-20T08:47:45.597Z,44.13
2023-10-20T08:50:12.686Z,44.65
2023-10-20T08:52:40.495Z,44.58
2023-10-20T08:55:09.038Z,44.97
2023-10-20T08:57:35.796Z,44.56
2023-10-20T09:00:02.699Z,44.65
2023-10-20T09:02:39.637Z,44.89
2023-10-20T09:05:08.334Z,45.26
2023-10-20T09:07:35.321Z,45.01
2023-10-20T09:10:02.561Z,45.19
2023-10-20T09:12:32.991Z,44.47
2023-10-20T09:14:59.910Z,44.51
2023-10-20T09:17:27.148Z,45.18
2023-10-20T09:20:12.573Z,44.92
2023-10-20T09:22:39.418Z,44.83
2023-10-20T09:25:09.060Z,45.42
2023-10-20T09:27:36.008Z,44.43
2023-10-20T09:30:03.167Z,45.28
2023-10-20T09:32:29.938Z,44.69
2023-10-20T09:34:58.778Z,44.85
2023-10-20T09:37:25.871Z,44.77
2023-10-20T09:39:53.927Z,44.21
2023-10-20T09:42:23.171Z,44.65
2023-10-20T09:45:14.564Z,44.23
2023-10-20T09:47:41.978Z,43.97
2023-10-20T09:50:13.029Z,43.99
2023-10-20T09:52:41.503Z,44.09
2023-10-20T09:55:09.378Z,43.96
2023-10-20T09:57:36.080Z,44.57
2023-10-20T10:00:08.525Z,43.78
2023-10-20T10:02:35.645Z,44.55
2023-10-20T10:05:02.504Z,44.83
2023-10-20T10:07:30.679Z,44.26
2023-10-20T10:09:58.635Z,44.83
2023-10-20T10:12:27.163Z,44.22
2023-10-20T10:15:08.865Z,44.64
2023-10-20T10:17:48.974Z,43.65
2023-10-20T10:20:26.263Z,43.60
2023-10-20T10:23:16.269Z,44.46
2023-10-20T10:25:48.032Z,43.75
2023-10-20T10:28:15.869Z,43.39
2023-10-20T10:30:43.069Z,43.39
2023-10-20T10:33:11.397Z,43.39
2023-10-20T10:35:39.406Z,44.23
2023-10-20T10:38:22.262Z,43.39
2023-10-20T10:40:56.320Z,43.92
2023-10-20T10:43:23.365Z,44.45
2023-10-20T10:45:55.881Z,43.78
2023-10-20T10:48:29.200Z,44.12
2023-10-20T10:50:56.076Z,43.52
2023-10-20T10:53:23.193Z,43.18
2023-10-20T10:55:49.906Z,43.81
2023-10-20T10:58:16.655Z,44.56
2023-10-20T11:00:45.242Z,44.02
2023-10-20T11:03:13.073Z,44.19
2023-10-20T11:05:40.547Z,44.56
2023-10-20T11:08:15.402Z,44.29
2023-10-20T11:10:47.402Z,44.87
2023-10-20T11:13:17.088Z,45.17
2023-10-20T11:15:44.235Z,45.12
2023-10-20T11:18:13.827Z,44.74
2023-10-20T11:20:45.122Z,44.96
2023-10-20T11:23:13.969Z,45.32
2023-10-20T11:25:43.905Z,44.65
2023-10-20T11:28:10.753Z,45.13
2023-10-20T11:30:39.815Z,44.92
2023-10-20T11:33:07.242Z,44.76
2023-10-20T11:35:34.685Z,45.25
2023-10-20T11:38:02.324Z,45.90
2023-10-20T11:40:29.369Z,44.99
2023-10-20T11:42:59.121Z,44.45
2023-10-20T11:45:25.955Z,45.00
2023-10-20T11:47:53.061Z,45.02
2023-10-20T11:50:20.629Z,44.38
2023-10-20T11:52:48.440Z,44.55
2023-10-20T11:55:15.157Z,44.84
2023-10-20T11:57:42.095Z,44.79
2023-10-20T12:00:14.873Z,45.08
2023-10-20T12:02:42.122Z,45.02
2023-10-20T12:05:09.818Z,44.02
2023-10-20T12:07:36.762Z,44.43
2023-10-20T12:10:07.068Z,44.26
2023-10-20T12:12:34.574Z,44.53
2023-10-20T12:15:04.513Z,44.38
2023-10-20T12:17:31.520Z,44.24
2023-10-20T12:19:58.752Z,44.51
2023-10-20T12:22:27.286Z,44.19
2023-10-20T12:24:54.276Z,43.98
2023-10-20T12:27:22.352Z,44.13
2023-10-20T12:29:49.559Z,43.53
2023-10-20T12:32:16.420Z,44.23
2023-10-20T12:34:43.154Z,44.22
2023-10-20T12:37:09.911Z,43.68
2023-10-20T12:39:36.625Z,43.46
2023-10-20T12:42:06.746Z,43.18
2023-10-20T12:44:37.485Z,43.38
2023-10-20T12:47:04.689Z,44.14
2023-10-20T12:49:33.026Z,43.98
2023-10-20T12:52:00.602Z,43.06
2023-10-20T12:54:27.593Z,43.75
2023-10-20T12:56:54.332Z,43.51
2023-10-20T12:59:21.102Z,43.17
2023-10-20T13:01:48.450Z,43.55
2023-10-20T13:04:15.352Z,43.62
2023-10-20T13:06:53.931Z,43.53
2023-10-20T13:09:25.430Z,43.22
2023-10-20T13:11:52.301Z,43.02
2023-10-20T13:14:19.083Z,43.80
2023-10-20T13:16:46.262Z,43.96
2023-10-20T13:19:15.078Z,43.96
2023-10-20T13:21:42.090Z,43.83
2023-10-20T13:24:09.061Z,43.98
2023-10-20T13:26:35.777Z,43.25
2023-10-20T13:29:02.512Z,43.40
2023-10-20T13:31:29.931Z,44.03
2023-10-20T13:33:56.644Z,43.59
2023-10-20T13:36:23.271Z,43.35
2023-10-20T13:38:50.079Z,43.96
2023-10-20T13:41:16.941Z,43.87
2023-10-20T13:43:44.728Z,44.17
2023-10-20T13:46:11.462Z,43.92
2023-10-20T13:48:38.491Z,44.43
2023-10-20T13:51:05.344Z,44.66
2023-10-20T13:53:32.183Z,44.33
2023-10-20T13:55:58.886Z,44.59
2023-10-20T13:58:26.693Z,44.52
2023-10-20T14:00:53.526Z,44.45
2023-10-20T14:03:20.404Z,44.84
2023-10-20T14:05:56.558Z,44.71
2023-10-20T14:08:23.831Z,44.97
2023-10-20T14:10:50.653Z,45.24
2023-10-20T14:13:17.747Z,44.73
2023-10-20T14:15:45.155Z,45.03
2023-10-20T14:18:12.641Z,45.06
2023-10-20T14:20:40.540Z,44.56
2023-10-20T14:23:08.863Z,44.95
2023-10-20T14:25:36.149Z,44.85
2023-10-20T14:28:03.245Z,45.06
2023-10-20T14:30:29.943Z,44.79
2023-10-20T14:32:56.739Z,44.92
2023-10-20T14:35:23.634Z,45.20
2023-10-20T14:37:50.966Z,45.33
2023-10-20T14:40:17.702Z,44.66
2023-10-20T14:42:44.900Z,45.34
2023-10-20T14:45:11.922Z,44.80
2023-10-20T14:47:38.723Z,44.71
2023-10-20T14:50:05.777Z,44.83
2023-10-20T14:52:32.501Z,45.09
2023-10-20T14:54:59.447Z,45.19
2023-10-20T14:57:26.069Z,44.92
2023-10-20T14:59:52.878Z,44.91
2023-10-20T15:02:19.703Z,45.24
2023-10-20T15:04:47.229Z,44.97
2023-10-20T15:07:14.161Z,45.59
2023-10-20T15:09:40.809Z,45.36
2023-10-20T15:12:08.820Z,45.35
2023-10-20T15:14:35.860Z,44.98
2023-10-20T15:17:02.574Z,45.24
2023-10-20T15:19:30.549Z,45.34
2023-10-20T15:21:57.420Z,45.39
2023-10-20T15:24:24.071Z,45.48
2023-10-20T15:26:51.735Z,45.70
2023-10-20T15:29:19.014Z,45.71
2023-10-20T15:31:45.896Z,45.47
2023-10-20T15:34:12.764Z,45.63
2023-10-20T15:36:49.651Z,45.51
2023-10-20T15:39:16.763Z,45.14
2023-10-20T15:41:43.558Z,45.53
2023-10-20T15:44:10.481Z,45.64
2023-10-20T15:46:37.318Z,44.96
2023-10-20T15:49:05.140Z,45.79
2023-10-20T15:51:31.821Z,45.73
2023-10-20T15:53:58.558Z,45.67
2023-10-20T15:56:25.888Z,46.39
2023-10-20T15:58:52.590Z,45.64
2023-10-20T16:01:19.352Z,45.66
2023-10-20T16:03:46.222Z,46.07
2023-10-20T16:06:12.999Z,45.78
2023-10-20T16:08:39.824Z,45.61
2023-10-20T16:11:06.759Z,45.61
2023-10-20T16:13:33.461Z,46.01
2023-10-20T16:16:00.193Z,46.04
2023-10-20T16:18:26.992Z,45.61
2023-10-20T16:20:54.164Z,45.63
2023-10-20T16:23:22.075Z,45.72
2023-10-20T16:25:48.731Z,45.50
2023-10-20T16:28:16.012Z,46.00
2023-10-20T16:30:42.716Z,46.22
2023-10-20T16:33:09.748Z,46.08
2023-10-20T16:35:36.641Z,46.47
2023-10-20T16:38:03.385Z,46.44
2023-10-20T16:40:32.585Z,46.56
2023-10-20T16:42:59.344Z,46.41
2023-10-20T16:45:26.091Z,46.21
2023-10-20T16:47:52.915Z,46.07
2023-10-20T16:50:19.641Z,46.46
2023-10-20T16:52:46.348Z,46.32
2023-10-20T16:55:13.132Z,46.02
2023-10-20T16:57:39.795Z,46.19
2023-10-20T17:00:07.411Z,46.13
2023-10-20T17:02:34.214Z,46.16
2023-10-20T17:05:00.996Z,46.20
2023-10-20T17:07:27.749Z,46.52
2023-10-20T17:09:54.497Z,46.50
2023-10-20T17:12:21.568Z,46.07
2023-10-20T17:14:48.566Z,46.16
2023-10-20T17:17:15.658Z,46.82
2023-10-20T17:19:42.319Z,46.23
2023-10-20T17:22:08.987Z,46.72
2023-10-20T17:24:35.695Z,46.70
2023-10-20T17:27:04.135Z,47.00
2023-10-20T17:29:30.965Z,47.07
2023-10-20T17:31:57.741Z,47.17
2023-10-20T17:34:24.904Z,47.22
2023-10-20T17:36:52.776Z,47.23
2023-10-20T17:39:19.654Z,47.44
2023-10-20T17:41:46.795Z,46.85
2023-10-20T17:44:13.670Z,46.89
2023-10-20T17:46:41.344Z,47.52
2023-10-20T17:49:08.377Z,47.20
2023-10-20T17:51:36.147Z,47.10
2023-10-20T17:54:02.977Z,46.82
2023-10-20T17:56:29.715Z,47.17
2023-10-20T17:58:56.377Z,46.77
2023-10-20T18:01:23.421Z,47.02
2023-10-20T18:03:50.241Z,47.06
2023-10-20T18:06:21.991Z,46.60
2023-10-20T18:08:50.974Z,46.83
2023-10-20T18:11:20.712Z,46.96
2023-10-20T18:13:48.051Z,46.61
2023-10-20T18:16:18.665Z,46.59
2023-10-20T18:18:51.797Z,46.46
2023-10-20T18:21:19.962Z,46.56
2023-10-20T18:23:48.201Z,46.08
2023-10-20T18:26:15.190Z,45.84
2023-10-20T18:28:42.234Z,46.07
2023-10-20T18:31:13.181Z,45.34
2023-10-20T18:33:40.229Z,45.63
2023-10-20T18:36:07.419Z,45.85
2023-10-20T18:38:34.285Z,45.18
2023-10-20T18:41:02.736Z,45.18
2023-10-20T18:43:29.873Z,44.76
2023-10-20T18:46:00.092Z,45.05
2023-10-20T18:48:28.188Z,44.73
2023-10-20T18:51:07.629Z,44.75
2023-10-20T18:53:34.809Z,44.92
2023-10-20T18:56:01.603Z,44.68
2023-10-20T18:58:28.650Z,45.01
2023-10-20T19:00:55.426Z,44.68
2023-10-20T19:03:22.312Z,45.14
2023-10-20T19:05:49.748Z,44.37
2023-10-20T19:08:17.156Z,44.39
2023-10-20T19:10:43.967Z,44.91
2023-10-20T19:13:10.921Z,44.71
2023-10-20T19:15:37.627Z,44.31
2023-10-20T19:18:05.147Z,44.78
2023-10-20T19:20:31.995Z,44.58
2023-10-20T19:22:58.870Z,44.30
2023-10-20T19:25:25.530Z,44.89
2023-10-20T19:27:52.264Z,44.88
2023-10-20T19:30:18.966Z,44.32
2023-10-20T19:32:45.733Z,44.57
2023-10-20T19:35:12.685Z,44.68
2023-10-20T19:37:39.337Z,44.79
2023-10-20T19:40:07.126Z,44.11
2023-10-20T19:42:33.804Z,44.58
2023-10-20T19:45:02.385Z,43.91
2023-10-20T19:47:29.240Z,44.42
2023-10-20T19:49:55.937Z,43.89
2023-10-20T19:52:22.597Z,44.46
2023-10-20T19:54:49.502Z,44.45
2023-10-20T19:57:16.158Z,44.04
2023-10-20T19:59:42.917Z,44.06
2023-10-20T20:02:09.860Z,44.08
2023-10-20T20:04:37.414Z,43.92
2023-10-20T20:07:04.185Z,44.43
2023-10-20T20:09:30.832Z,43.94
2023-10-20T20:11:58.174Z,43.77
2023-10-20T20:14:24.808Z,44.36
2023-10-20T20:16:51.482Z,44.46
2023-10-20T20:19:18.164Z,44.26
2023-10-20T20:21:46.395Z,44.21
2023-10-20T20:24:13.153Z,43.53
2023-10-20T20:26:39.891Z,43.95
2023-10-20T20:29:06.612Z,43.86
2023-10-20T20:31:33.299Z,43.67
2023-10-20T20:33:59.951Z,44.25
2023-10-20T20:36:26.924Z,43.74
2023-10-20T20:38:53.638Z,43.49
2023-10-20T20:41:20.296Z,43.46
2023-10-20T20:43:46.916Z,43.34
2023-10-20T20:46:13.682Z,43.66
2023-10-20T20:48:40.487Z,43.59
2023-10-20T20:51:11.125Z,43.01
2023-10-20T20:53:38.041Z,43.15
2023-10-20T20:56:05.150Z,43.57
2023-10-20T20:58:32.433Z,43.21
2023-10-20T21:01:01.333Z,42.63
2023-10-20T21:03:28.267Z,42.96
2023-10-20T21:06:01.407Z,43.75
2023-10-20T21:08:28.359Z,43.31
2023-10-20T21:10:55.174Z,43.82
2023-10-20T21:13:21.949Z,43.31
2023-10-20T21:15:48.638Z,42.84
2023-10-20T21:18:15.469Z,43.30
2023-10-20T21:20:42.898Z,43.20
2023-10-20T21:23:09.606Z,43.09
2023-10-20T21:25:38.055Z,43.23
2023-10-20T21:28:05.922Z,43.31
2023-10-20T21:30:36.343Z,43.61
2023-10-20T21:33:03.551Z,43.75
2023-10-20T21:35:31.094Z,43.71
2023-10-20T21:37:57.781Z,43.26
2023-10-20T21:40:24.427Z,43.13
2023-10-20T21:42:51.110Z,43.78
2023-10-20T21:45:17.868Z,43.38
2023-10-20T21:47:44.590Z,42.74
2023-10-20T21:50:11.295Z,42.58
2023-10-20T21:52:38.256Z,43.16
2023-10-20T21:55:05.274Z,43.24
2023-10-20T21:57:31.998Z,42.94
2023-10-20T21:59:58.840Z,42.95
2023-10-20T22:02:25.586Z,42.84
2023-10-20T22:04:55.165Z,42.72
2023-10-20T22:07:21.835Z,42.85
2023-10-20T22:09:54.069Z,43.38
2023-10-20T22:12:21.808Z,43.03
2023-10-20T22:14:48.487Z,42.83
2023-10-20T22:17:15.123Z,43.75
2023-10-20T22:19:41.766Z,43.54
2023-10-20T22:22:08.875Z,42.94
2023-10-20T22:24:35.522Z,43.35
2023-10-20T22:27:02.226Z,43.43
2023-10-20T22:29:29.099Z,43.50
2023-10-20T22:31:55.739Z,43.33
2023-10-20T22:34:22.384Z,42.78
2023-10-20T22:36:49.030Z,42.88
2023-10-20T22:39:16.077Z,42.73
2023-10-20T22:41:42.857Z,42.53
2023-10-20T22:44:09.746Z,42.57
2023-10-20T22:46:36.461Z,43.23
2023-10-20T22:49:03.357Z,42.75
2023-10-20T22:51:30.094Z,42.67
2023-10-20T22:53:56.752Z,43.38
2023-10-20T22:56:24.035Z,43.14
2023-10-20T22:58:50.808Z,42.87
2023-10-20T23:01:17.534Z,42.84
2023-10-20T23:03:44.216Z,43.07
2023-10-20T23:06:11.149Z,42.86
2023-10-20T23:08:37.976Z,42.97
2023-10-20T23:11:04.916Z,42.71
2023-10-20T23:13:31.623Z,43.19
2023-10-20T23:15:58.489Z,42.98
2023-10-20T23:18:25.394Z,43.24
2023-10-20T23:20:55.640Z,42.35
2023-10-20T23:23:22.520Z,42.99
2023-10-20T23:25:49.223Z,43.36
2023-10-20T23:28:15.858Z,42.89
2023-10-20T23:30:42.536Z,43.23
2023-10-20T23:33:09.412Z,42.95
2023-10-20T23:35:36.148Z,42.35
2023-10-20T23:38:02.863Z,42.91
2023-10-20T23:40:29.504Z,42.85
2023-10-20T23:42:56.132Z,42.62
2023-10-20T23:45:22.956Z,42.68
2023-10-20T23:47:49.656Z,42.54
2023-10-20T23:50:16.592Z,43.12
2023-10-20T23:52:43.258Z,42.65
2023-10-20T23:55:10.018Z,42.52
2023-10-20T23:57:36.656Z,42.77
